sensor_id;sensor_type;location;lat;lon;timestamp;temperature;humidity
15617;DHT22;7908;51.688;7.130;2023-03-24T00:01:29;11.10;99.90
15617;DHT22;7908;51.688;7.130;2023-03-24T00:03:59;11.10;99.90
15617;DHT22;7908;51.688;7.130;2023-03-24T00:06:29;11.10;99.90
15617;DHT22;7908;51.688;7.130;2023-03-24T00:09:00;11.10;99.90
15617;DHT22;7908;51.688;7.130;2023-03-24T00:11:30;11.20;99.90
15617;DHT22;7908;51.688;7.130;2023-03-24T00:14:01;11.20;99.90
15617;DHT22;7908;51.688;7.130;2023-03-24T00:16:30;11.20;99.90
15617;DHT22;7908;51.688;7.130;2023-03-24T00:19:02;11.20;99.90
15617;DHT22;7908;51.688;7.130;2023-03-24T00:21:31;11.20;99.90
15617;DHT22;7908;51.688;7.130;2023-03-24T00:24:00;11.20;99.90
15617;DHT22;7908;51.688;7.130;2023-03-24T00:26:31;11.20;99.90
15617;DHT22;7908;51.688;7.130;2023-03-24T00:29:00;11.20;99.90
15617;DHT22;7908;51.688;7.130;2023-03-24T00:31:29;11.20;99.90
15617;DHT22;7908;51.688;7.130;2023-03-24T00:33:59;11.20;99.90
15617;DHT22;7908;51.688;7.130;2023-03-24T00:36:30;11.20;99.90
15617;DHT22;7908;51.688;7.130;2023-03-24T00:38:59;11.20;99.90
15617;DHT22;7908;51.688;7.130;2023-03-24T00:41:29;11.20;99.90
15617;DHT22;7908;51.688;7.130;2023-03-24T00:43:59;11.20;99.90
15617;DHT22;7908;51.688;7.130;2023-03-24T00:46:32;11.20;99.90
15617;DHT22;7908;51.688;7.130;2023-03-24T00:49:04;11.20;99.90
15617;DHT22;7908;51.688;7.130;2023-03-24T00:51:36;11.20;99.90
15617;DHT22;7908;51.688;7.130;2023-03-24T00:54:06;11.30;99.90
15617;DHT22;7908;51.688;7.130;2023-03-24T00:56:37;11.20;99.90
15617;DHT22;7908;51.688;7.130;2023-03-24T00:59:07;11.20;99.90
15617;DHT22;7908;51.688;7.130;2023-03-24T01:01:37;11.20;99.90
15617;DHT22;7908;51.688;7.130;2023-03-24T01:04:07;11.20;99.90
15617;DHT22;7908;51.688;7.130;2023-03-24T01:06:39;11.20;99.90
15617;DHT22;7908;51.688;7.130;2023-03-24T01:09:08;11.10;99.90
15617;DHT22;7908;51.688;7.130;2023-03-24T01:11:39;11.20;99.90
15617;DHT22;7908;51.688;7.130;2023-03-24T01:14:08;11.20;99.90
15617;DHT22;7908;51.688;7.130;2023-03-24T01:16:38;11.20;99.90
15617;DHT22;7908;51.688;7.130;2023-03-24T01:19:07;11.20;99.90
15617;DHT22;7908;51.688;7.130;2023-03-24T01:21:38;11.20;99.90
15617;DHT22;7908;51.688;7.130;2023-03-24T01:24:08;11.20;99.90
15617;DHT22;7908;51.688;7.130;2023-03-24T01:26:37;11.20;99.90
15617;DHT22;7908;51.688;7.130;2023-03-24T01:29:06;11.20;99.90
15617;DHT22;7908;51.688;7.130;2023-03-24T01:31:35;11.20;99.90
15617;DHT22;7908;51.688;7.130;2023-03-24T01:34:04;11.20;99.90
15617;DHT22;7908;51.688;7.130;2023-03-24T01:36:32;11.20;99.90
15617;DHT22;7908;51.688;7.130;2023-03-24T01:39:03;11.20;99.90
15617;DHT22;7908;51.688;7.130;2023-03-24T01:41:34;11.20;99.90
15617;DHT22;7908;51.688;7.130;2023-03-24T01:44:25;11.20;99.90
15617;DHT22;7908;51.688;7.130;2023-03-24T01:46:55;11.20;99.90
15617;DHT22;7908;51.688;7.130;2023-03-24T01:49:28;11.20;99.90
15617;DHT22;7908;51.688;7.130;2023-03-24T01:52:02;11.30;99.90
15617;DHT22;7908;51.688;7.130;2023-03-24T01:54:37;11.20;99.90
15617;DHT22;7908;51.688;7.130;2023-03-24T01:57:12;11.30;99.90
15617;DHT22;7908;51.688;7.130;2023-03-24T01:59:48;11.20;99.90
15617;DHT22;7908;51.688;7.130;2023-03-24T02:02:19;11.20;99.90
15617;DHT22;7908;51.688;7.130;2023-03-24T02:04:51;11.20;99.90
15617;DHT22;7908;51.688;7.130;2023-03-24T02:07:28;11.30;99.90
15617;DHT22;7908;51.688;7.130;2023-03-24T02:10:03;11.30;99.90
15617;DHT22;7908;51.688;7.130;2023-03-24T02:12:32;11.30;99.90
15617;DHT22;7908;51.688;7.130;2023-03-24T02:15:02;11.30;99.90
15617;DHT22;7908;51.688;7.130;2023-03-24T02:17:50;11.30;99.90
15617;DHT22;7908;51.688;7.130;2023-03-24T02:23:37;11.40;99.90
15617;DHT22;7908;51.688;7.130;2023-03-24T02:26:40;11.40;99.90
15617;DHT22;7908;51.688;7.130;2023-03-24T02:32:46;11.40;99.90
15617;DHT22;7908;51.688;7.130;2023-03-24T02:41:51;11.30;99.90
15617;DHT22;7908;51.688;7.130;2023-03-24T02:44:28;11.30;99.90
15617;DHT22;7908;51.688;7.130;2023-03-24T02:47:02;11.30;99.90
15617;DHT22;7908;51.688;7.130;2023-03-24T02:49:35;11.40;99.90
15617;DHT22;7908;51.688;7.130;2023-03-24T02:52:17;11.30;99.90
15617;DHT22;7908;51.688;7.130;2023-03-24T02:54:50;11.40;99.90
15617;DHT22;7908;51.688;7.130;2023-03-24T02:57:31;11.40;99.90
15617;DHT22;7908;51.688;7.130;2023-03-24T03:00:04;11.30;99.90
15617;DHT22;7908;51.688;7.130;2023-03-24T03:02:40;11.30;99.90
15617;DHT22;7908;51.688;7.130;2023-03-24T03:05:15;11.30;99.90
15617;DHT22;7908;51.688;7.130;2023-03-24T03:07:45;11.40;99.90
15617;DHT22;7908;51.688;7.130;2023-03-24T03:10:20;11.40;99.90
15617;DHT22;7908;51.688;7.130;2023-03-24T03:12:54;11.40;99.90
15617;DHT22;7908;51.688;7.130;2023-03-24T03:15:27;11.40;99.90
15617;DHT22;7908;51.688;7.130;2023-03-24T03:18:00;11.40;99.90
15617;DHT22;7908;51.688;7.130;2023-03-24T03:20:38;11.50;99.90
15617;DHT22;7908;51.688;7.130;2023-03-24T03:23:11;11.50;99.90
15617;DHT22;7908;51.688;7.130;2023-03-24T03:25:45;11.50;99.90
15617;DHT22;7908;51.688;7.130;2023-03-24T03:28:21;11.50;99.90
15617;DHT22;7908;51.688;7.130;2023-03-24T03:30:53;11.50;99.90
15617;DHT22;7908;51.688;7.130;2023-03-24T03:33:24;11.60;99.90
15617;DHT22;7908;51.688;7.130;2023-03-24T03:35:57;11.60;99.90
15617;DHT22;7908;51.688;7.130;2023-03-24T03:38:36;11.60;99.90
15617;DHT22;7908;51.688;7.130;2023-03-24T03:41:09;11.60;99.90
15617;DHT22;7908;51.688;7.130;2023-03-24T03:43:40;11.70;99.90
15617;DHT22;7908;51.688;7.130;2023-03-24T03:46:09;11.60;99.90
15617;DHT22;7908;51.688;7.130;2023-03-24T03:48:39;11.70;99.90
15617;DHT22;7908;51.688;7.130;2023-03-24T03:51:08;11.60;99.90
15617;DHT22;7908;51.688;7.130;2023-03-24T03:53:45;11.60;99.90
15617;DHT22;7908;51.688;7.130;2023-03-24T03:56:18;11.70;99.90
15617;DHT22;7908;51.688;7.130;2023-03-24T03:58:49;11.70;99.90
15617;DHT22;7908;51.688;7.130;2023-03-24T04:01:21;11.70;99.90
15617;DHT22;7908;51.688;7.130;2023-03-24T04:04:07;11.70;99.90
15617;DHT22;7908;51.688;7.130;2023-03-24T04:06:42;11.70;99.90
15617;DHT22;7908;51.688;7.130;2023-03-24T04:09:28;11.70;99.90
15617;DHT22;7908;51.688;7.130;2023-03-24T04:12:35;11.70;99.90
15617;DHT22;7908;51.688;7.130;2023-03-24T04:15:32;11.80;99.90
15617;DHT22;7908;51.688;7.130;2023-03-24T04:21:36;11.80;99.90
15617;DHT22;7908;51.688;7.130;2023-03-24T04:24:18;11.80;99.90
15617;DHT22;7908;51.688;7.130;2023-03-24T04:26:55;11.80;99.90
15617;DHT22;7908;51.688;7.130;2023-03-24T04:29:32;11.80;99.90
15617;DHT22;7908;51.688;7.130;2023-03-24T04:32:09;11.90;99.90
15617;DHT22;7908;51.688;7.130;2023-03-24T04:34:47;11.90;99.90
15617;DHT22;7908;51.688;7.130;2023-03-24T04:37:23;11.90;99.90
15617;DHT22;7908;51.688;7.130;2023-03-24T04:39:54;11.90;99.90
15617;DHT22;7908;51.688;7.130;2023-03-24T04:42:26;11.90;99.90
15617;DHT22;7908;51.688;7.130;2023-03-24T04:44:58;11.90;99.90
15617;DHT22;7908;51.688;7.130;2023-03-24T04:47:33;11.90;99.90
15617;DHT22;7908;51.688;7.130;2023-03-24T04:50:06;11.90;99.90
15617;DHT22;7908;51.688;7.130;2023-03-24T04:52:38;11.90;99.90
15617;DHT22;7908;51.688;7.130;2023-03-24T04:55:36;11.90;99.90
15617;DHT22;7908;51.688;7.130;2023-03-24T04:58:07;12.00;99.90
15617;DHT22;7908;51.688;7.130;2023-03-24T05:00:36;11.90;99.90
15617;DHT22;7908;51.688;7.130;2023-03-24T05:03:06;11.90;99.90
15617;DHT22;7908;51.688;7.130;2023-03-24T05:05:34;12.00;99.90
15617;DHT22;7908;51.688;7.130;2023-03-24T05:08:03;12.00;99.90
15617;DHT22;7908;51.688;7.130;2023-03-24T05:10:32;12.00;99.90
15617;DHT22;7908;51.688;7.130;2023-03-24T05:13:00;11.90;99.90
15617;DHT22;7908;51.688;7.130;2023-03-24T05:15:29;11.90;99.90
15617;DHT22;7908;51.688;7.130;2023-03-24T05:17:58;11.80;99.90
15617;DHT22;7908;51.688;7.130;2023-03-24T05:20:29;11.70;99.90
15617;DHT22;7908;51.688;7.130;2023-03-24T05:22:58;11.50;99.90
15617;DHT22;7908;51.688;7.130;2023-03-24T05:25:27;11.30;99.90
15617;DHT22;7908;51.688;7.130;2023-03-24T05:27:56;11.20;99.90
15617;DHT22;7908;51.688;7.130;2023-03-24T05:30:25;11.10;99.90
15617;DHT22;7908;51.688;7.130;2023-03-24T05:32:54;11.00;99.90
15617;DHT22;7908;51.688;7.130;2023-03-24T05:35:22;10.90;99.90
15617;DHT22;7908;51.688;7.130;2023-03-24T05:37:53;10.90;99.90
15617;DHT22;7908;51.688;7.130;2023-03-24T05:40:22;10.80;99.90
15617;DHT22;7908;51.688;7.130;2023-03-24T05:42:51;10.70;99.90
15617;DHT22;7908;51.688;7.130;2023-03-24T05:45:19;10.70;99.90
15617;DHT22;7908;51.688;7.130;2023-03-24T05:47:48;10.60;99.90
15617;DHT22;7908;51.688;7.130;2023-03-24T05:50:17;10.60;99.90
15617;DHT22;7908;51.688;7.130;2023-03-24T05:52:47;10.50;99.90
15617;DHT22;7908;51.688;7.130;2023-03-24T05:55:18;10.40;99.90
15617;DHT22;7908;51.688;7.130;2023-03-24T05:57:48;10.40;99.90
15617;DHT22;7908;51.688;7.130;2023-03-24T06:00:18;10.40;99.90
15617;DHT22;7908;51.688;7.130;2023-03-24T06:02:49;10.30;99.90
15617;DHT22;7908;51.688;7.130;2023-03-24T06:05:18;10.30;99.90
15617;DHT22;7908;51.688;7.130;2023-03-24T06:07:47;10.30;99.90
15617;DHT22;7908;51.688;7.130;2023-03-24T06:10:16;10.30;99.90
15617;DHT22;7908;51.688;7.130;2023-03-24T06:12:47;10.30;99.90
15617;DHT22;7908;51.688;7.130;2023-03-24T06:15:16;10.40;99.90
15617;DHT22;7908;51.688;7.130;2023-03-24T06:17:45;10.40;99.90
15617;DHT22;7908;51.688;7.130;2023-03-24T06:20:13;10.40;99.90
15617;DHT22;7908;51.688;7.130;2023-03-24T06:22:45;10.40;99.90
15617;DHT22;7908;51.688;7.130;2023-03-24T06:25:15;10.30;99.90
15617;DHT22;7908;51.688;7.130;2023-03-24T06:27:48;10.30;99.90
15617;DHT22;7908;51.688;7.130;2023-03-24T06:30:18;10.30;99.90
15617;DHT22;7908;51.688;7.130;2023-03-24T06:32:48;10.20;99.90
15617;DHT22;7908;51.688;7.130;2023-03-24T06:35:17;10.20;99.90
15617;DHT22;7908;51.688;7.130;2023-03-24T06:37:45;10.20;99.90
15617;DHT22;7908;51.688;7.130;2023-03-24T06:40:14;10.20;99.90
15617;DHT22;7908;51.688;7.130;2023-03-24T06:42:44;10.10;99.90
15617;DHT22;7908;51.688;7.130;2023-03-24T06:45:14;10.10;99.90
15617;DHT22;7908;51.688;7.130;2023-03-24T06:47:42;10.10;99.90
15617;DHT22;7908;51.688;7.130;2023-03-24T06:50:11;10.10;99.90
15617;DHT22;7908;51.688;7.130;2023-03-24T06:52:40;10.10;99.90
15617;DHT22;7908;51.688;7.130;2023-03-24T06:55:09;10.20;99.90
15617;DHT22;7908;51.688;7.130;2023-03-24T06:57:37;10.20;99.90
15617;DHT22;7908;51.688;7.130;2023-03-24T07:00:07;10.20;99.90
15617;DHT22;7908;51.688;7.130;2023-03-24T07:02:39;10.20;99.90
15617;DHT22;7908;51.688;7.130;2023-03-24T07:05:09;10.20;99.90
15617;DHT22;7908;51.688;7.130;2023-03-24T07:07:38;10.20;99.90
15617;DHT22;7908;51.688;7.130;2023-03-24T07:10:10;10.20;99.90
15617;DHT22;7908;51.688;7.130;2023-03-24T07:12:40;10.20;99.90
15617;DHT22;7908;51.688;7.130;2023-03-24T07:15:09;10.20;99.90
15617;DHT22;7908;51.688;7.130;2023-03-24T07:17:41;10.20;99.90
15617;DHT22;7908;51.688;7.130;2023-03-24T07:20:10;10.20;99.90
15617;DHT22;7908;51.688;7.130;2023-03-24T07:22:39;10.20;99.90
15617;DHT22;7908;51.688;7.130;2023-03-24T07:25:07;10.30;99.90
15617;DHT22;7908;51.688;7.130;2023-03-24T07:27:36;10.30;99.90
15617;DHT22;7908;51.688;7.130;2023-03-24T07:30:09;10.30;99.90
15617;DHT22;7908;51.688;7.130;2023-03-24T07:32:38;10.30;99.90
15617;DHT22;7908;51.688;7.130;2023-03-24T07:35:11;10.30;99.90
15617;DHT22;7908;51.688;7.130;2023-03-24T07:37:39;10.40;99.90
15617;DHT22;7908;51.688;7.130;2023-03-24T07:40:10;10.40;99.90
15617;DHT22;7908;51.688;7.130;2023-03-24T07:42:40;10.40;99.90
15617;DHT22;7908;51.688;7.130;2023-03-24T07:45:10;10.40;99.90
15617;DHT22;7908;51.688;7.130;2023-03-24T07:47:43;10.50;99.90
15617;DHT22;7908;51.688;7.130;2023-03-24T07:50:13;10.50;99.90
15617;DHT22;7908;51.688;7.130;2023-03-24T07:52:48;10.50;99.90
15617;DHT22;7908;51.688;7.130;2023-03-24T07:55:17;10.50;99.90
15617;DHT22;7908;51.688;7.130;2023-03-24T07:57:46;10.50;99.90
15617;DHT22;7908;51.688;7.130;2023-03-24T08:00:17;10.60;99.90
15617;DHT22;7908;51.688;7.130;2023-03-24T08:02:48;10.60;99.90
15617;DHT22;7908;51.688;7.130;2023-03-24T08:05:20;10.60;99.90
15617;DHT22;7908;51.688;7.130;2023-03-24T08:07:51;10.70;99.90
15617;DHT22;7908;51.688;7.130;2023-03-24T08:10:24;10.70;99.90
15617;DHT22;7908;51.688;7.130;2023-03-24T08:12:53;10.80;99.90
15617;DHT22;7908;51.688;7.130;2023-03-24T08:15:22;10.80;99.90
15617;DHT22;7908;51.688;7.130;2023-03-24T08:17:51;10.80;99.90
15617;DHT22;7908;51.688;7.130;2023-03-24T08:20:22;10.80;99.90
15617;DHT22;7908;51.688;7.130;2023-03-24T08:22:52;10.90;99.90
15617;DHT22;7908;51.688;7.130;2023-03-24T08:25:24;11.00;99.90
15617;DHT22;7908;51.688;7.130;2023-03-24T08:27:53;11.10;99.90
15617;DHT22;7908;51.688;7.130;2023-03-24T08:30:23;11.10;99.90
15617;DHT22;7908;51.688;7.130;2023-03-24T08:32:54;11.10;99.90
15617;DHT22;7908;51.688;7.130;2023-03-24T08:35:26;11.10;99.90
15617;DHT22;7908;51.688;7.130;2023-03-24T08:37:55;11.10;99.90
15617;DHT22;7908;51.688;7.130;2023-03-24T08:40:27;11.10;99.90
15617;DHT22;7908;51.688;7.130;2023-03-24T08:42:57;11.20;99.90
15617;DHT22;7908;51.688;7.130;2023-03-24T08:45:27;11.10;99.90
15617;DHT22;7908;51.688;7.130;2023-03-24T08:47:58;11.20;99.90
15617;DHT22;7908;51.688;7.130;2023-03-24T08:50:31;11.30;99.90
15617;DHT22;7908;51.688;7.130;2023-03-24T08:53:01;11.30;99.90
15617;DHT22;7908;51.688;7.130;2023-03-24T08:55:31;11.30;99.90
15617;DHT22;7908;51.688;7.130;2023-03-24T08:58:00;11.40;99.90
15617;DHT22;7908;51.688;7.130;2023-03-24T09:00:29;11.40;99.90
15617;DHT22;7908;51.688;7.130;2023-03-24T09:02:58;11.50;99.90
15617;DHT22;7908;51.688;7.130;2023-03-24T09:05:29;11.70;99.90
15617;DHT22;7908;51.688;7.130;2023-03-24T09:08:18;11.80;99.90
15617;DHT22;7908;51.688;7.130;2023-03-24T09:10:47;11.90;99.90
15617;DHT22;7908;51.688;7.130;2023-03-24T09:13:18;12.10;99.90
15617;DHT22;7908;51.688;7.130;2023-03-24T09:15:48;12.30;99.90
15617;DHT22;7908;51.688;7.130;2023-03-24T09:18:18;12.40;99.90
15617;DHT22;7908;51.688;7.130;2023-03-24T09:20:49;12.50;99.90
15617;DHT22;7908;51.688;7.130;2023-03-24T09:23:19;12.60;99.90
15617;DHT22;7908;51.688;7.130;2023-03-24T09:25:49;12.60;99.90
15617;DHT22;7908;51.688;7.130;2023-03-24T09:28:18;12.70;99.90
15617;DHT22;7908;51.688;7.130;2023-03-24T09:30:48;12.70;99.90
15617;DHT22;7908;51.688;7.130;2023-03-24T09:33:17;12.80;99.90
15617;DHT22;7908;51.688;7.130;2023-03-24T09:35:54;12.80;99.90
15617;DHT22;7908;51.688;7.130;2023-03-24T09:38:26;12.90;99.90
15617;DHT22;7908;51.688;7.130;2023-03-24T09:40:57;12.90;99.90
15617;DHT22;7908;51.688;7.130;2023-03-24T09:43:35;13.00;99.90
15617;DHT22;7908;51.688;7.130;2023-03-24T09:46:08;13.00;99.90
15617;DHT22;7908;51.688;7.130;2023-03-24T09:48:42;13.00;99.90
15617;DHT22;7908;51.688;7.130;2023-03-24T09:51:19;13.20;99.90
15617;DHT22;7908;51.688;7.130;2023-03-24T09:53:55;13.20;99.90
15617;DHT22;7908;51.688;7.130;2023-03-24T09:56:25;13.20;99.90
15617;DHT22;7908;51.688;7.130;2023-03-24T09:59:02;13.20;99.90
15617;DHT22;7908;51.688;7.130;2023-03-24T10:01:33;13.30;99.90
15617;DHT22;7908;51.688;7.130;2023-03-24T10:04:03;13.30;99.90
15617;DHT22;7908;51.688;7.130;2023-03-24T10:06:37;13.40;99.90
15617;DHT22;7908;51.688;7.130;2023-03-24T10:09:24;13.40;99.90
15617;DHT22;7908;51.688;7.130;2023-03-24T10:12:04;13.30;99.90
15617;DHT22;7908;51.688;7.130;2023-03-24T10:14:48;13.20;99.90
15617;DHT22;7908;51.688;7.130;2023-03-24T10:17:24;13.20;99.90
15617;DHT22;7908;51.688;7.130;2023-03-24T10:20:01;13.30;99.90
15617;DHT22;7908;51.688;7.130;2023-03-24T10:22:35;13.50;99.90
15617;DHT22;7908;51.688;7.130;2023-03-24T10:25:15;13.70;99.90
15617;DHT22;7908;51.688;7.130;2023-03-24T10:27:51;13.80;99.90
15617;DHT22;7908;51.688;7.130;2023-03-24T10:30:24;13.90;99.90
15617;DHT22;7908;51.688;7.130;2023-03-24T10:32:54;13.90;99.90
15617;DHT22;7908;51.688;7.130;2023-03-24T10:35:26;13.90;99.90
15617;DHT22;7908;51.688;7.130;2023-03-24T10:37:58;14.00;99.90
15617;DHT22;7908;51.688;7.130;2023-03-24T10:40:31;14.10;99.90
15617;DHT22;7908;51.688;7.130;2023-03-24T10:43:02;14.20;99.90
15617;DHT22;7908;51.688;7.130;2023-03-24T10:45:38;14.40;99.90
15617;DHT22;7908;51.688;7.130;2023-03-24T10:48:12;14.40;99.90
15617;DHT22;7908;51.688;7.130;2023-03-24T10:50:43;14.40;99.90
15617;DHT22;7908;51.688;7.130;2023-03-24T10:53:18;14.40;99.90
15617;DHT22;7908;51.688;7.130;2023-03-24T10:55:47;14.30;99.90
15617;DHT22;7908;51.688;7.130;2023-03-24T10:58:20;14.20;99.90
15617;DHT22;7908;51.688;7.130;2023-03-24T11:00:52;14.20;99.90
15617;DHT22;7908;51.688;7.130;2023-03-24T11:03:26;14.30;99.90
15617;DHT22;7908;51.688;7.130;2023-03-24T11:05:58;14.30;99.90
15617;DHT22;7908;51.688;7.130;2023-03-24T11:08:33;14.40;99.90
15617;DHT22;7908;51.688;7.130;2023-03-24T11:11:13;14.30;99.90
15617;DHT22;7908;51.688;7.130;2023-03-24T11:13:53;14.20;99.90
15617;DHT22;7908;51.688;7.130;2023-03-24T11:16:27;14.10;99.90
15617;DHT22;7908;51.688;7.130;2023-03-24T11:18:58;14.00;99.90
15617;DHT22;7908;51.688;7.130;2023-03-24T11:21:28;13.90;99.90
15617;DHT22;7908;51.688;7.130;2023-03-24T11:24:00;14.00;99.90
15617;DHT22;7908;51.688;7.130;2023-03-24T11:26:32;14.10;99.90
15617;DHT22;7908;51.688;7.130;2023-03-24T11:29:04;14.10;99.90
15617;DHT22;7908;51.688;7.130;2023-03-24T11:31:35;14.10;99.90
15617;DHT22;7908;51.688;7.130;2023-03-24T11:34:09;14.10;99.90
15617;DHT22;7908;51.688;7.130;2023-03-24T11:36:46;14.10;99.90
15617;DHT22;7908;51.688;7.130;2023-03-24T11:39:20;14.20;99.90
15617;DHT22;7908;51.688;7.130;2023-03-24T11:41:58;14.30;99.90
15617;DHT22;7908;51.688;7.130;2023-03-24T11:44:31;14.40;99.90
15617;DHT22;7908;51.688;7.130;2023-03-24T11:47:05;14.60;99.90
15617;DHT22;7908;51.688;7.130;2023-03-24T11:49:39;14.70;99.90
15617;DHT22;7908;51.688;7.130;2023-03-24T11:52:17;14.90;99.90
15617;DHT22;7908;51.688;7.130;2023-03-24T11:54:50;14.90;99.90
15617;DHT22;7908;51.688;7.130;2023-03-24T11:57:26;14.90;99.90
15617;DHT22;7908;51.688;7.130;2023-03-24T12:00:06;14.90;99.90
15617;DHT22;7908;51.688;7.130;2023-03-24T12:02:47;15.00;99.90
15617;DHT22;7908;51.688;7.130;2023-03-24T12:05:26;15.00;99.90
15617;DHT22;7908;51.688;7.130;2023-03-24T12:08:31;14.90;99.90
15617;DHT22;7908;51.688;7.130;2023-03-24T12:11:15;14.80;99.90
15617;DHT22;7908;51.688;7.130;2023-03-24T12:13:47;14.70;99.90
15617;DHT22;7908;51.688;7.130;2023-03-24T12:16:34;14.60;99.90
15617;DHT22;7908;51.688;7.130;2023-03-24T12:19:36;14.60;99.90
15617;DHT22;7908;51.688;7.130;2023-03-24T12:22:18;14.70;99.90
15617;DHT22;7908;51.688;7.130;2023-03-24T12:25:20;14.70;99.90
15617;DHT22;7908;51.688;7.130;2023-03-24T12:28:04;14.80;99.90
15617;DHT22;7908;51.688;7.130;2023-03-24T12:30:38;14.80;99.90
15617;DHT22;7908;51.688;7.130;2023-03-24T12:33:24;14.90;99.90
15617;DHT22;7908;51.688;7.130;2023-03-24T12:36:17;14.90;99.90
15617;DHT22;7908;51.688;7.130;2023-03-24T12:38:59;14.90;99.90
15617;DHT22;7908;51.688;7.130;2023-03-24T12:44:42;14.90;99.90
15617;DHT22;7908;51.688;7.130;2023-03-24T12:47:25;15.10;99.90
15617;DHT22;7908;51.688;7.130;2023-03-24T12:50:02;15.20;99.90
15617;DHT22;7908;51.688;7.130;2023-03-24T12:55:34;15.00;99.90
15617;DHT22;7908;51.688;7.130;2023-03-24T12:58:10;14.90;99.90
15617;DHT22;7908;51.688;7.130;2023-03-24T13:00:55;15.00;99.90
15617;DHT22;7908;51.688;7.130;2023-03-24T13:03:29;14.90;99.90
15617;DHT22;7908;51.688;7.130;2023-03-24T13:06:11;14.90;99.90
15617;DHT22;7908;51.688;7.130;2023-03-24T13:08:48;14.90;99.90
15617;DHT22;7908;51.688;7.130;2023-03-24T13:11:25;15.00;99.90
15617;DHT22;7908;51.688;7.130;2023-03-24T13:14:02;15.10;99.90
15617;DHT22;7908;51.688;7.130;2023-03-24T13:16:35;15.20;99.90
15617;DHT22;7908;51.688;7.130;2023-03-24T13:19:12;15.20;99.90
15617;DHT22;7908;51.688;7.130;2023-03-24T13:21:44;15.20;99.90
15617;DHT22;7908;51.688;7.130;2023-03-24T13:24:13;15.20;99.90
15617;DHT22;7908;51.688;7.130;2023-03-24T13:26:49;15.20;99.90
15617;DHT22;7908;51.688;7.130;2023-03-24T13:32:31;15.20;99.90
15617;DHT22;7908;51.688;7.130;2023-03-24T13:35:10;15.20;99.90
15617;DHT22;7908;51.688;7.130;2023-03-24T13:37:41;15.20;99.90
15617;DHT22;7908;51.688;7.130;2023-03-24T13:40:20;15.20;99.90
15617;DHT22;7908;51.688;7.130;2023-03-24T13:42:53;15.30;99.90
15617;DHT22;7908;51.688;7.130;2023-03-24T13:45:37;15.40;99.90
15617;DHT22;7908;51.688;7.130;2023-03-24T13:48:28;15.40;99.90
15617;DHT22;7908;51.688;7.130;2023-03-24T13:51:01;15.40;99.90
15617;DHT22;7908;51.688;7.130;2023-03-24T13:53:37;15.40;99.90
15617;DHT22;7908;51.688;7.130;2023-03-24T13:56:08;15.20;99.90
15617;DHT22;7908;51.688;7.130;2023-03-24T13:58:50;15.10;99.90
15617;DHT22;7908;51.688;7.130;2023-03-24T14:01:35;14.90;99.90
15617;DHT22;7908;51.688;7.130;2023-03-24T14:04:26;14.80;99.90
15617;DHT22;7908;51.688;7.130;2023-03-24T14:06:56;14.40;99.90
15617;DHT22;7908;51.688;7.130;2023-03-24T14:09:28;13.80;99.90
15617;DHT22;7908;51.688;7.130;2023-03-24T14:12:19;12.60;99.90
15617;DHT22;7908;51.688;7.130;2023-03-24T14:15:11;11.70;99.90
15617;DHT22;7908;51.688;7.130;2023-03-24T14:17:46;11.40;99.90
15617;DHT22;7908;51.688;7.130;2023-03-24T14:20:32;11.20;99.90
15617;DHT22;7908;51.688;7.130;2023-03-24T14:23:03;11.20;99.90
15617;DHT22;7908;51.688;7.130;2023-03-24T14:25:34;11.10;99.90
15617;DHT22;7908;51.688;7.130;2023-03-24T14:28:14;11.00;99.90
15617;DHT22;7908;51.688;7.130;2023-03-24T14:34:07;11.00;99.90
15617;DHT22;7908;51.688;7.130;2023-03-24T14:36:40;11.00;99.90
15617;DHT22;7908;51.688;7.130;2023-03-24T14:39:26;11.00;99.90
15617;DHT22;7908;51.688;7.130;2023-03-24T14:41:58;10.90;99.90
15617;DHT22;7908;51.688;7.130;2023-03-24T14:44:52;10.90;99.90
15617;DHT22;7908;51.688;7.130;2023-03-24T14:47:26;10.80;99.90
15617;DHT22;7908;51.688;7.130;2023-03-24T14:49:59;10.70;99.90
15617;DHT22;7908;51.688;7.130;2023-03-24T14:52:34;10.80;99.90
15617;DHT22;7908;51.688;7.130;2023-03-24T14:55:10;10.80;99.90
15617;DHT22;7908;51.688;7.130;2023-03-24T14:57:44;10.70;99.90
15617;DHT22;7908;51.688;7.130;2023-03-24T15:00:18;10.80;99.90
15617;DHT22;7908;51.688;7.130;2023-03-24T15:02:49;10.80;99.90
15617;DHT22;7908;51.688;7.130;2023-03-24T15:05:23;10.80;99.90
15617;DHT22;7908;51.688;7.130;2023-03-24T15:08:02;10.80;99.90
15617;DHT22;7908;51.688;7.130;2023-03-24T15:10:36;10.80;99.90
15617;DHT22;7908;51.688;7.130;2023-03-24T15:13:27;10.80;99.90
15617;DHT22;7908;51.688;7.130;2023-03-24T15:15:57;10.90;99.90
15617;DHT22;7908;51.688;7.130;2023-03-24T15:18:26;11.00;99.90
15617;DHT22;7908;51.688;7.130;2023-03-24T15:20:55;11.00;99.90
15617;DHT22;7908;51.688;7.130;2023-03-24T15:23:27;10.90;99.90
15617;DHT22;7908;51.688;7.130;2023-03-24T15:25:56;10.90;99.90
15617;DHT22;7908;51.688;7.130;2023-03-24T15:28:29;10.90;99.90
15617;DHT22;7908;51.688;7.130;2023-03-24T15:30:59;11.00;99.90
15617;DHT22;7908;51.688;7.130;2023-03-24T15:33:37;11.00;99.90
15617;DHT22;7908;51.688;7.130;2023-03-24T15:36:13;11.10;99.90
15617;DHT22;7908;51.688;7.130;2023-03-24T15:38:49;11.10;99.90
15617;DHT22;7908;51.688;7.130;2023-03-24T15:41:21;11.10;99.90
15617;DHT22;7908;51.688;7.130;2023-03-24T15:43:51;11.10;99.90
15617;DHT22;7908;51.688;7.130;2023-03-24T15:46:25;11.20;99.90
15617;DHT22;7908;51.688;7.130;2023-03-24T15:48:55;11.20;99.90
15617;DHT22;7908;51.688;7.130;2023-03-24T15:51:47;11.30;99.90
15617;DHT22;7908;51.688;7.130;2023-03-24T15:54:23;11.30;99.90
15617;DHT22;7908;51.688;7.130;2023-03-24T15:57:11;11.30;99.90
15617;DHT22;7908;51.688;7.130;2023-03-24T15:59:45;11.30;99.90
15617;DHT22;7908;51.688;7.130;2023-03-24T16:02:24;11.30;99.90
15617;DHT22;7908;51.688;7.130;2023-03-24T16:04:57;11.20;99.90
15617;DHT22;7908;51.688;7.130;2023-03-24T16:07:38;11.20;99.90
15617;DHT22;7908;51.688;7.130;2023-03-24T16:13:13;11.20;99.90
15617;DHT22;7908;51.688;7.130;2023-03-24T16:15:45;11.20;99.90
15617;DHT22;7908;51.688;7.130;2023-03-24T16:18:16;11.20;99.90
15617;DHT22;7908;51.688;7.130;2023-03-24T16:20:45;11.20;99.90
15617;DHT22;7908;51.688;7.130;2023-03-24T16:23:15;11.10;99.90
15617;DHT22;7908;51.688;7.130;2023-03-24T16:25:44;11.00;99.90
15617;DHT22;7908;51.688;7.130;2023-03-24T16:28:17;11.00;99.90
15617;DHT22;7908;51.688;7.130;2023-03-24T16:30:50;11.00;99.90
15617;DHT22;7908;51.688;7.130;2023-03-24T16:33:20;11.00;99.90
15617;DHT22;7908;51.688;7.130;2023-03-24T16:35:49;11.00;99.90
15617;DHT22;7908;51.688;7.130;2023-03-24T16:38:18;11.10;99.90
15617;DHT22;7908;51.688;7.130;2023-03-24T16:40:51;11.10;99.90
15617;DHT22;7908;51.688;7.130;2023-03-24T16:43:22;11.10;99.90
15617;DHT22;7908;51.688;7.130;2023-03-24T16:45:51;11.20;99.90
15617;DHT22;7908;51.688;7.130;2023-03-24T16:48:20;11.20;99.90
15617;DHT22;7908;51.688;7.130;2023-03-24T16:50:51;11.20;99.90
15617;DHT22;7908;51.688;7.130;2023-03-24T16:53:21;11.20;99.90
15617;DHT22;7908;51.688;7.130;2023-03-24T16:55:50;11.30;99.90
15617;DHT22;7908;51.688;7.130;2023-03-24T16:58:18;11.40;99.90